sensor_id;sensor_type;location;lat;lon;timestamp;pressure;altitude;pressure_sealevel;temperature;humidity
59409;BME280;45213;32.654;-115.458;2023-01-28T00:00:13;101613.81;;;22.94;16.93
59409;BME280;45213;32.654;-115.458;2023-01-28T00:02:40;101611.56;;;22.81;17.12
59409;BME280;45213;32.654;-115.458;2023-01-28T00:05:07;101619.88;;;22.68;16.30
59409;BME280;45213;32.654;-115.458;2023-01-28T00:07:33;101608.69;;;22.57;17.57
59409;BME280;45213;32.654;-115.458;2023-01-28T00:10:00;101605.91;;;22.30;16.90
59409;BME280;45213;32.654;-115.458;2023-01-28T00:12:27;101604.94;;;22.33;18.58
59409;BME280;45213;32.654;-115.458;2023-01-28T00:14:54;101605.69;;;22.38;18.07
59409;BME280;45213;32.654;-115.458;2023-01-28T00:17:21;101601.06;;;22.45;17.55
59409;BME280;45213;32.654;-115.458;2023-01-28T00:19:47;101599.38;;;22.42;17.84
59409;BME280;45213;32.654;-115.458;2023-01-28T00:22:14;101598.84;;;22.29;17.88
59409;BME280;45213;32.654;-115.458;2023-01-28T00:24:41;101602.69;;;22.16;17.35
59409;BME280;45213;32.654;-115.458;2023-01-28T00:27:07;101591.75;;;23.22;17.22
59409;BME280;45213;32.654;-115.458;2023-01-28T00:29:35;101592.19;;;24.92;15.79
59409;BME280;45213;32.654;-115.458;2023-01-28T00:32:01;101583.19;;;25.84;14.38
59409;BME280;45213;32.654;-115.458;2023-01-28T00:34:28;101583.91;;;26.10;14.13
59409;BME280;45213;32.654;-115.458;2023-01-28T00:36:55;101581.22;;;25.67;15.12
59409;BME280;45213;32.654;-115.458;2023-01-28T00:39:25;101582.22;;;24.50;15.76
59409;BME280;45213;32.654;-115.458;2023-01-28T00:41:52;101578.91;;;22.46;18.25
59409;BME280;45213;32.654;-115.458;2023-01-28T00:44:20;101571.94;;;21.37;20.27
59409;BME280;45213;32.654;-115.458;2023-01-28T00:46:46;101585.44;;;20.84;21.67
59409;BME280;45213;32.654;-115.458;2023-01-28T00:49:13;101586.41;;;20.35;21.89
59409;BME280;45213;32.654;-115.458;2023-01-28T00:51:40;101574.75;;;19.97;22.97
59409;BME280;45213;32.654;-115.458;2023-01-28T00:54:07;101579.41;;;19.81;23.21
59409;BME280;45213;32.654;-115.458;2023-01-28T00:56:34;101585.75;;;19.68;23.67
59409;BME280;45213;32.654;-115.458;2023-01-28T00:59:02;101585.97;;;19.56;23.31
59409;BME280;45213;32.654;-115.458;2023-01-28T01:01:28;101580.06;;;19.38;24.03
59409;BME280;45213;32.654;-115.458;2023-01-28T01:03:55;101583.75;;;19.28;23.78
59409;BME280;45213;32.654;-115.458;2023-01-28T01:06:37;101584.88;;;19.10;23.51
59409;BME280;45213;32.654;-115.458;2023-01-28T01:09:06;101585.00;;;19.01;23.42
59409;BME280;45213;32.654;-115.458;2023-01-28T01:11:33;101577.25;;;18.87;23.24
59409;BME280;45213;32.654;-115.458;2023-01-28T01:14:00;101579.19;;;18.70;23.71
59409;BME280;45213;32.654;-115.458;2023-01-28T01:16:30;101576.69;;;18.57;23.92
59409;BME280;45213;32.654;-115.458;2023-01-28T01:19:01;101576.84;;;18.44;24.06
59409;BME280;45213;32.654;-115.458;2023-01-28T01:21:29;101576.03;;;18.40;24.14
59409;BME280;45213;32.654;-115.458;2023-01-28T01:23:56;101575.22;;;18.35;24.39
59409;BME280;45213;32.654;-115.458;2023-01-28T01:26:23;101576.19;;;18.23;25.00
59409;BME280;45213;32.654;-115.458;2023-01-28T01:28:52;101578.94;;;18.11;24.57
59409;BME280;45213;32.654;-115.458;2023-01-28T01:31:20;101580.78;;;18.03;25.52
59409;BME280;45213;32.654;-115.458;2023-01-28T01:33:48;101580.03;;;17.87;25.77
59409;BME280;45213;32.654;-115.458;2023-01-28T01:36:16;101574.81;;;17.78;25.38
59409;BME280;45213;32.654;-115.458;2023-01-28T01:38:45;101574.00;;;17.69;25.53
59409;BME280;45213;32.654;-115.458;2023-01-28T01:41:23;101580.22;;;17.61;25.63
59409;BME280;45213;32.654;-115.458;2023-01-28T01:43:53;101589.94;;;17.52;26.20
59409;BME280;45213;32.654;-115.458;2023-01-28T01:46:50;101584.72;;;17.46;26.06
59409;BME280;45213;32.654;-115.458;2023-01-28T01:51:45;101590.13;;;17.20;26.32
59409;BME280;45213;32.654;-115.458;2023-01-28T01:54:12;101583.19;;;17.05;26.60
59409;BME280;45213;32.654;-115.458;2023-01-28T01:56:43;101583.19;;;17.01;27.00
59409;BME280;45213;32.654;-115.458;2023-01-28T01:59:17;101578.88;;;16.90;26.69
59409;BME280;45213;32.654;-115.458;2023-01-28T02:01:47;101591.16;;;16.90;28.06
59409;BME280;45213;32.654;-115.458;2023-01-28T02:04:28;101582.41;;;16.77;28.17
59409;BME280;45213;32.654;-115.458;2023-01-28T02:06:58;101582.41;;;16.80;27.90
59409;BME280;45213;32.654;-115.458;2023-01-28T02:09:27;101579.78;;;16.80;29.52
59409;BME280;45213;32.654;-115.458;2023-01-28T02:12:30;101578.09;;;16.62;27.79
59409;BME280;45213;32.654;-115.458;2023-01-28T02:14:53;101580.75;;;16.48;28.89
59409;BME280;45213;32.654;-115.458;2023-01-28T02:17:23;101579.03;;;16.44;29.71
59409;BME280;45213;32.654;-115.458;2023-01-28T02:19:59;101572.00;;;16.37;29.67
59409;BME280;45213;32.654;-115.458;2023-01-28T02:22:43;101567.69;;;16.22;29.76
59409;BME280;45213;32.654;-115.458;2023-01-28T02:25:36;101562.44;;;16.18;29.86
59409;BME280;45213;32.654;-115.458;2023-01-28T02:31:14;101559.81;;;16.02;29.34
59409;BME280;45213;32.654;-115.458;2023-01-28T02:33:49;101559.81;;;15.96;29.87
59409;BME280;45213;32.654;-115.458;2023-01-28T02:36:38;101560.69;;;15.95;30.96
59409;BME280;45213;32.654;-115.458;2023-01-28T02:39:17;101558.06;;;15.95;29.97
59409;BME280;45213;32.654;-115.458;2023-01-28T02:41:51;101561.59;;;15.94;29.59
59409;BME280;45213;32.654;-115.458;2023-01-28T02:44:19;101553.69;;;15.90;29.90
59409;BME280;45213;32.654;-115.458;2023-01-28T02:46:45;101565.97;;;15.83;30.43
59409;BME280;45213;32.654;-115.458;2023-01-28T02:49:51;101557.19;;;15.70;29.84
59409;BME280;45213;32.654;-115.458;2023-01-28T02:52:30;101558.09;;;15.71;30.21
59409;BME280;45213;32.654;-115.458;2023-01-28T03:01:34;101551.03;;;15.57;29.17
59409;BME280;45213;32.654;-115.458;2023-01-28T03:04:07;101555.41;;;15.52;31.20
59409;BME280;45213;32.654;-115.458;2023-01-28T03:06:40;101552.81;;;15.49;31.23
59409;BME280;45213;32.654;-115.458;2023-01-28T03:09:09;101554.53;;;15.38;30.86
59409;BME280;45213;32.654;-115.458;2023-01-28T03:12:11;101563.28;;;15.31;30.34
59409;BME280;45213;32.654;-115.458;2023-01-28T03:15:12;101554.50;;;15.25;32.03
59409;BME280;45213;32.654;-115.458;2023-01-28T03:24:05;101564.06;;;14.97;31.18
59409;BME280;45213;32.654;-115.458;2023-01-28T03:29:57;101568.38;;;14.78;31.69
59409;BME280;45213;32.654;-115.458;2023-01-28T03:32:43;101566.59;;;14.82;33.00
59409;BME280;45213;32.654;-115.458;2023-01-28T03:35:32;101563.94;;;14.68;32.76
59409;BME280;45213;32.654;-115.458;2023-01-28T03:38:19;101564.78;;;14.61;32.12
59409;BME280;45213;32.654;-115.458;2023-01-28T03:43:16;101557.72;;;14.54;32.29
59409;BME280;45213;32.654;-115.458;2023-01-28T03:45:45;101547.19;;;14.48;32.24
59409;BME280;45213;32.654;-115.458;2023-01-28T03:48:23;101553.25;;;14.39;31.80
59409;BME280;45213;32.654;-115.458;2023-01-28T03:50:50;101560.25;;;14.38;33.65
59409;BME280;45213;32.654;-115.458;2023-01-28T03:53:18;101555.03;;;14.40;31.82
59409;BME280;45213;32.654;-115.458;2023-01-28T03:55:51;101546.25;;;14.35;31.62
59409;BME280;45213;32.654;-115.458;2023-01-28T03:58:19;101552.38;;;14.35;32.84
59409;BME280;45213;32.654;-115.458;2023-01-28T04:00:46;101554.94;;;14.28;32.28
59409;BME280;45213;32.654;-115.458;2023-01-28T04:03:15;101553.13;;;14.19;32.65
59409;BME280;45213;32.654;-115.458;2023-01-28T04:05:59;101554.91;;;14.20;32.42
59409;BME280;45213;32.654;-115.458;2023-01-28T04:08:40;101551.34;;;14.09;32.51
59409;BME280;45213;32.654;-115.458;2023-01-28T04:11:29;101554.81;;;14.05;32.83
59409;BME280;45213;32.654;-115.458;2023-01-28T04:13:57;101559.97;;;13.92;33.35
59409;BME280;45213;32.654;-115.458;2023-01-28T04:16:26;101549.47;;;13.91;32.94
59409;BME280;45213;32.654;-115.458;2023-01-28T04:18:53;101553.75;;;13.83;32.87
59409;BME280;45213;32.654;-115.458;2023-01-28T04:21:21;101548.53;;;13.81;32.73
59409;BME280;45213;32.654;-115.458;2023-01-28T04:23:47;101549.34;;;13.75;33.59
59409;BME280;45213;32.654;-115.458;2023-01-28T04:26:14;101550.19;;;13.70;33.18
59409;BME280;45213;32.654;-115.458;2023-01-28T04:28:41;101551.91;;;13.71;33.41
59409;BME280;45213;32.654;-115.458;2023-01-28T04:31:08;101551.88;;;13.63;33.81
59409;BME280;45213;32.654;-115.458;2023-01-28T04:33:40;101548.28;;;13.53;33.08
59409;BME280;45213;32.654;-115.458;2023-01-28T04:36:42;101541.28;;;13.49;33.65
59409;BME280;45213;32.654;-115.458;2023-01-28T04:39:23;101534.28;;;13.47;34.36
59409;BME280;45213;32.654;-115.458;2023-01-28T04:42:08;101543.91;;;13.49;33.70
59409;BME280;45213;32.654;-115.458;2023-01-28T04:45:01;101528.09;;;13.39;33.21
59409;BME280;45213;32.654;-115.458;2023-01-28T04:47:38;101531.56;;;13.39;33.35
59409;BME280;45213;32.654;-115.458;2023-01-28T04:50:37;101528.97;;;13.38;33.83
59409;BME280;45213;32.654;-115.458;2023-01-28T04:53:23;101528.06;;;13.35;34.32
59409;BME280;45213;32.654;-115.458;2023-01-28T04:55:56;101518.41;;;13.30;33.84
59409;BME280;45213;32.654;-115.458;2023-01-28T04:58:24;101524.47;;;13.27;34.15
59409;BME280;45213;32.654;-115.458;2023-01-28T05:00:56;101516.50;;;13.16;33.92
59409;BME280;45213;32.654;-115.458;2023-01-28T05:03:23;101516.53;;;13.18;34.09
59409;BME280;45213;32.654;-115.458;2023-01-28T05:05:51;101518.28;;;13.21;34.40
59409;BME280;45213;32.654;-115.458;2023-01-28T05:08:30;101510.38;;;13.14;34.66
59409;BME280;45213;32.654;-115.458;2023-01-28T05:10:56;101518.22;;;13.13;34.43
59409;BME280;45213;32.654;-115.458;2023-01-28T05:13:23;101507.75;;;13.14;34.10
59409;BME280;45213;32.654;-115.458;2023-01-28T05:15:51;101511.19;;;13.07;34.38
59409;BME280;45213;32.654;-115.458;2023-01-28T05:18:20;101508.56;;;13.04;34.83
59409;BME280;45213;32.654;-115.458;2023-01-28T05:20:59;101505.09;;;13.08;34.58
59409;BME280;45213;32.654;-115.458;2023-01-28T05:23:26;101497.16;;;12.99;34.59
59409;BME280;45213;32.654;-115.458;2023-01-28T05:25:55;101492.75;;;12.96;34.77
59409;BME280;45213;32.654;-115.458;2023-01-28T05:28:22;101499.78;;;12.99;34.09
59409;BME280;45213;32.654;-115.458;2023-01-28T05:30:49;101487.50;;;12.93;34.00
59409;BME280;45213;32.654;-115.458;2023-01-28T05:33:17;101493.66;;;12.97;34.01
59409;BME280;45213;32.654;-115.458;2023-01-28T05:35:43;101490.09;;;12.90;33.75
59409;BME280;45213;32.654;-115.458;2023-01-28T05:38:10;101499.59;;;12.82;34.67
59409;BME280;45213;32.654;-115.458;2023-01-28T05:40:37;101486.53;;;12.84;34.13
59409;BME280;45213;32.654;-115.458;2023-01-28T05:43:04;101483.03;;;12.82;33.88
59409;BME280;45213;32.654;-115.458;2023-01-28T05:45:40;101489.19;;;12.87;32.88
59409;BME280;45213;32.654;-115.458;2023-01-28T05:48:11;101485.78;;;12.95;33.22
59409;BME280;45213;32.654;-115.458;2023-01-28T05:50:48;101482.22;;;12.89;33.52
59409;BME280;45213;32.654;-115.458;2023-01-28T05:53:31;101476.88;;;12.75;34.44
59409;BME280;45213;32.654;-115.458;2023-01-28T05:55:58;101469.97;;;12.82;33.64
59409;BME280;45213;32.654;-115.458;2023-01-28T05:58:24;101471.69;;;12.80;33.18
59409;BME280;45213;32.654;-115.458;2023-01-28T06:00:54;101472.56;;;12.79;34.13
59409;BME280;45213;32.654;-115.458;2023-01-28T06:03:26;101476.78;;;12.67;33.55
59409;BME280;45213;32.654;-115.458;2023-01-28T06:05:55;101475.00;;;12.66;33.94
59409;BME280;45213;32.654;-115.458;2023-01-28T06:08:21;101471.47;;;12.61;33.69
59409;BME280;45213;32.654;-115.458;2023-01-28T06:10:48;101467.00;;;12.51;34.50
59409;BME280;45213;32.654;-115.458;2023-01-28T06:13:14;101464.31;;;12.43;34.79
59409;BME280;45213;32.654;-115.458;2023-01-28T06:16:11;101468.75;;;12.52;34.63
59409;BME280;45213;32.654;-115.458;2023-01-28T06:18:46;101465.16;;;12.44;34.61
59409;BME280;45213;32.654;-115.458;2023-01-28T06:21:13;101468.50;;;12.32;34.87
59409;BME280;45213;32.654;-115.458;2023-01-28T06:23:39;101474.53;;;12.25;34.65
59409;BME280;45213;32.654;-115.458;2023-01-28T06:26:07;101477.06;;;12.20;35.30
59409;BME280;45213;32.654;-115.458;2023-01-28T06:28:36;101477.88;;;12.16;35.67
59409;BME280;45213;32.654;-115.458;2023-01-28T06:31:02;101472.63;;;12.15;35.58
59409;BME280;45213;32.654;-115.458;2023-01-28T06:33:29;101473.47;;;12.12;35.18
59409;BME280;45213;32.654;-115.458;2023-01-28T06:35:56;101469.00;;;12.03;35.40
59409;BME280;45213;32.654;-115.458;2023-01-28T06:38:22;101465.31;;;11.89;35.72
59409;BME280;45213;32.654;-115.458;2023-01-28T06:40:53;101464.28;;;11.79;35.80
59409;BME280;45213;32.654;-115.458;2023-01-28T06:43:21;101459.91;;;11.78;36.30
59409;BME280;45213;32.654;-115.458;2023-01-28T06:45:57;101456.44;;;11.81;36.60
59409;BME280;45213;32.654;-115.458;2023-01-28T06:48:24;101441.69;;;11.81;36.87
59409;BME280;45213;32.654;-115.458;2023-01-28T06:50:51;101452.91;;;11.76;35.67
59409;BME280;45213;32.654;-115.458;2023-01-28T06:53:18;101443.16;;;11.64;35.88
59409;BME280;45213;32.654;-115.458;2023-01-28T06:55:45;101437.94;;;11.64;35.26
59409;BME280;45213;32.654;-115.458;2023-01-28T06:58:12;101438.81;;;11.63;36.53
59409;BME280;45213;32.654;-115.458;2023-01-28T07:00:38;101440.38;;;11.53;36.96
59409;BME280;45213;32.654;-115.458;2023-01-28T07:03:05;101436.09;;;11.57;36.46
59409;BME280;45213;32.654;-115.458;2023-01-28T07:05:32;101430.00;;;11.55;36.27
59409;BME280;45213;32.654;-115.458;2023-01-28T07:07:58;101432.41;;;11.44;37.52
59409;BME280;45213;32.654;-115.458;2023-01-28T07:10:27;101424.50;;;11.36;37.25
59409;BME280;45213;32.654;-115.458;2023-01-28T07:12:54;101423.53;;;11.31;37.01
59409;BME280;45213;32.654;-115.458;2023-01-28T07:15:20;101422.63;;;11.29;38.04
59409;BME280;45213;32.654;-115.458;2023-01-28T07:17:47;101412.13;;;11.24;37.93
59409;BME280;45213;32.654;-115.458;2023-01-28T07:20:14;101412.13;;;11.26;37.71
59409;BME280;45213;32.654;-115.458;2023-01-28T07:22:42;101412.97;;;11.22;36.99
59409;BME280;45213;32.654;-115.458;2023-01-28T07:25:10;101415.31;;;11.06;37.22
59409;BME280;45213;32.654;-115.458;2023-01-28T07:27:37;101415.38;;;11.11;38.52
59409;BME280;45213;32.654;-115.458;2023-01-28T07:30:04;101416.25;;;11.12;37.81
59409;BME280;45213;32.654;-115.458;2023-01-28T07:32:31;101404.97;;;11.11;39.04
59409;BME280;45213;32.654;-115.458;2023-01-28T07:34:58;101410.84;;;10.99;38.98
59409;BME280;45213;32.654;-115.458;2023-01-28T07:37:24;101412.44;;;10.91;40.05
59409;BME280;45213;32.654;-115.458;2023-01-28T07:39:51;101408.81;;;10.83;38.78
59409;BME280;45213;32.654;-115.458;2023-01-28T07:42:17;101400.16;;;10.84;38.49
59409;BME280;45213;32.654;-115.458;2023-01-28T07:44:45;101405.28;;;10.81;38.49
59409;BME280;45213;32.654;-115.458;2023-01-28T07:47:12;101406.09;;;10.77;38.94
59409;BME280;45213;32.654;-115.458;2023-01-28T07:49:39;101407.06;;;10.82;40.03
59409;BME280;45213;32.654;-115.458;2023-01-28T07:52:07;101406.16;;;10.80;39.54
59409;BME280;45213;32.654;-115.458;2023-01-28T07:54:34;101401.88;;;10.85;38.79
59409;BME280;45213;32.654;-115.458;2023-01-28T07:57:00;101399.13;;;10.76;39.33
59409;BME280;45213;32.654;-115.458;2023-01-28T07:59:27;101401.47;;;10.62;39.94
59409;BME280;45213;32.654;-115.458;2023-01-28T08:01:53;101397.22;;;10.65;40.15
59409;BME280;45213;32.654;-115.458;2023-01-28T08:04:20;101400.69;;;10.66;39.88
59409;BME280;45213;32.654;-115.458;2023-01-28T08:06:47;101406.84;;;10.71;40.73
59409;BME280;45213;32.654;-115.458;2023-01-28T08:09:13;101397.22;;;10.65;40.07
59409;BME280;45213;32.654;-115.458;2023-01-28T08:11:40;101407.72;;;10.70;39.48
59409;BME280;45213;32.654;-115.458;2023-01-28T08:14:08;101407.66;;;10.67;39.18
59409;BME280;45213;32.654;-115.458;2023-01-28T08:16:35;101406.84;;;10.70;39.28
59409;BME280;45213;32.654;-115.458;2023-01-28T08:19:02;101410.28;;;10.69;39.51
59409;BME280;45213;32.654;-115.458;2023-01-28T08:21:28;101405.91;;;10.66;38.89
59409;BME280;45213;32.654;-115.458;2023-01-28T08:23:55;101428.31;;;10.56;38.50
59409;BME280;45213;32.654;-115.458;2023-01-28T08:26:21;101424.69;;;10.50;38.01
59409;BME280;45213;32.654;-115.458;2023-01-28T08:28:48;101428.34;;;10.59;38.47
59409;BME280;45213;32.654;-115.458;2023-01-28T08:31:15;101418.72;;;10.54;38.45
59409;BME280;45213;32.654;-115.458;2023-01-28T08:33:41;101434.06;;;10.41;38.12
59409;BME280;45213;32.654;-115.458;2023-01-28T08:36:08;101417.66;;;10.45;38.49
59409;BME280;45213;32.654;-115.458;2023-01-28T08:38:34;101414.25;;;10.48;39.01
59409;BME280;45213;32.654;-115.458;2023-01-28T08:41:01;101423.81;;;10.49;38.83
59409;BME280;45213;32.654;-115.458;2023-01-28T08:43:28;101425.44;;;10.44;38.46
59409;BME280;45213;32.654;-115.458;2023-01-28T08:45:55;101419.22;;;10.36;39.86
59409;BME280;45213;32.654;-115.458;2023-01-28T08:48:21;101428.72;;;10.34;39.65
59409;BME280;45213;32.654;-115.458;2023-01-28T08:50:48;101422.66;;;10.35;39.65
59409;BME280;45213;32.654;-115.458;2023-01-28T08:53:17;101424.06;;;10.20;40.19
59409;BME280;45213;32.654;-115.458;2023-01-28T08:55:45;101421.28;;;10.13;40.62
59409;BME280;45213;32.654;-115.458;2023-01-28T08:58:14;101412.50;;;10.08;40.19
59409;BME280;45213;32.654;-115.458;2023-01-28T09:00:42;101408.84;;;9.98;41.01
59409;BME280;45213;32.654;-115.458;2023-01-28T09:03:09;101404.41;;;9.94;41.20
59409;BME280;45213;32.654;-115.458;2023-01-28T09:05:36;101410.34;;;9.87;40.58
59409;BME280;45213;32.654;-115.458;2023-01-28T09:08:04;101402.53;;;9.87;40.78
59409;BME280;45213;32.654;-115.458;2023-01-28T09:10:31;101405.75;;;9.75;41.20
59409;BME280;45213;32.654;-115.458;2023-01-28T09:12:58;101411.78;;;9.72;41.19
59409;BME280;45213;32.654;-115.458;2023-01-28T09:15:24;101406.53;;;9.71;41.06
59409;BME280;45213;32.654;-115.458;2023-01-28T09:17:56;101402.06;;;9.65;41.12
59409;BME280;45213;32.654;-115.458;2023-01-28T09:20:24;101403.78;;;9.65;42.54
59409;BME280;45213;32.654;-115.458;2023-01-28T09:22:51;101405.44;;;9.61;42.75
59409;BME280;45213;32.654;-115.458;2023-01-28T09:25:18;101403.47;;;9.51;41.85
59409;BME280;45213;32.654;-115.458;2023-01-28T09:27:45;101402.63;;;9.52;41.95
59409;BME280;45213;32.654;-115.458;2023-01-28T09:30:12;101394.03;;;9.54;42.64
59409;BME280;45213;32.654;-115.458;2023-01-28T09:32:38;101393.22;;;9.57;42.38
59409;BME280;45213;32.654;-115.458;2023-01-28T09:35:05;101393.09;;;9.52;42.27
59409;BME280;45213;32.654;-115.458;2023-01-28T09:37:32;101392.44;;;9.62;41.77
59409;BME280;45213;32.654;-115.458;2023-01-28T09:39:59;101392.28;;;9.55;43.20
59409;BME280;45213;32.654;-115.458;2023-01-28T09:45:36;101390.41;;;9.48;43.79
59409;BME280;45213;32.654;-115.458;2023-01-28T09:48:07;101397.34;;;9.49;42.75
59409;BME280;45213;32.654;-115.458;2023-01-28T09:50:38;101394.53;;;9.39;43.72
59409;BME280;45213;32.654;-115.458;2023-01-28T09:55:46;101380.03;;;9.13;44.28
59409;BME280;45213;32.654;-115.458;2023-01-28T09:58:15;101382.72;;;9.16;44.79
59409;BME280;45213;32.654;-115.458;2023-01-28T10:17:14;101383.19;;;9.01;44.10
59409;BME280;45213;32.654;-115.458;2023-01-28T10:19:48;101383.09;;;8.96;45.45
59409;BME280;45213;32.654;-115.458;2023-01-28T10:22:23;101385.78;;;8.99;45.16
59409;BME280;45213;32.654;-115.458;2023-01-28T10:24:54;101382.34;;;9.01;45.30
59409;BME280;45213;32.654;-115.458;2023-01-28T10:27:30;101384.16;;;9.05;45.23
59409;BME280;45213;32.654;-115.458;2023-01-28T10:29:59;101390.25;;;9.05;44.79
59409;BME280;45213;32.654;-115.458;2023-01-28T10:32:33;101385.03;;;9.05;44.86
59409;BME280;45213;32.654;-115.458;2023-01-28T10:35:02;101388.34;;;8.98;44.83
59409;BME280;45213;32.654;-115.458;2023-01-28T10:37:37;101383.03;;;8.93;45.05
59409;BME280;45213;32.654;-115.458;2023-01-28T10:40:16;101382.91;;;8.89;44.78
59409;BME280;45213;32.654;-115.458;2023-01-28T10:42:44;101375.81;;;8.83;45.47
59409;BME280;45213;32.654;-115.458;2023-01-28T10:51:05;101379.84;;;8.72;46.66
59409;BME280;45213;32.654;-115.458;2023-01-28T10:53:43;101377.53;;;8.83;45.29
59409;BME280;45213;32.654;-115.458;2023-01-28T10:56:24;101369.75;;;8.81;46.24
59409;BME280;45213;32.654;-115.458;2023-01-28T10:59:06;101363.53;;;8.76;46.50
59409;BME280;45213;32.654;-115.458;2023-01-28T11:01:45;101365.31;;;8.78;45.29
59409;BME280;45213;32.654;-115.458;2023-01-28T11:04:26;101367.16;;;8.81;45.13
59409;BME280;45213;32.654;-115.458;2023-01-28T11:07:06;101358.44;;;8.81;46.02
59409;BME280;45213;32.654;-115.458;2023-01-28T11:09:48;101362.72;;;8.77;45.93
59409;BME280;45213;32.654;-115.458;2023-01-28T11:12:26;101368.53;;;8.68;46.72
59409;BME280;45213;32.654;-115.458;2023-01-28T11:14:54;101358.97;;;8.67;46.09
59409;BME280;45213;32.654;-115.458;2023-01-28T11:17:26;101363.16;;;8.62;46.35
59409;BME280;45213;32.654;-115.458;2023-01-28T11:19:58;101366.50;;;8.56;46.82
59409;BME280;45213;32.654;-115.458;2023-01-28T11:22:32;101361.19;;;8.52;45.70
59409;BME280;45213;32.654;-115.458;2023-01-28T11:25:03;101366.09;;;8.41;47.01
59409;BME280;45213;32.654;-115.458;2023-01-28T11:27:31;101359.06;;;8.39;46.38
59409;BME280;45213;32.654;-115.458;2023-01-28T11:30:00;101363.28;;;8.35;44.76
59409;BME280;45213;32.654;-115.458;2023-01-28T11:32:30;101365.13;;;8.39;45.36
59409;BME280;45213;32.654;-115.458;2023-01-28T11:34:56;101363.28;;;8.35;46.45
59409;BME280;45213;32.654;-115.458;2023-01-28T11:37:26;101364.34;;;8.42;45.17
59409;BME280;45213;32.654;-115.458;2023-01-28T11:40:13;101373.59;;;8.32;43.75
59409;BME280;45213;32.654;-115.458;2023-01-28T11:42:42;101361.09;;;8.19;42.97
59409;BME280;45213;32.654;-115.458;2023-01-28T11:45:15;101365.03;;;8.04;43.06
59409;BME280;45213;32.654;-115.458;2023-01-28T12:01:51;101360.91;;;8.11;44.17
59409;BME280;45213;32.654;-115.458;2023-01-28T12:04:46;101354.06;;;8.14;44.37
59409;BME280;45213;32.654;-115.458;2023-01-28T12:09:59;101349.47;;;8.04;43.33
59409;BME280;45213;32.654;-115.458;2023-01-28T12:21:05;101351.81;;;7.95;44.72
59409;BME280;45213;32.654;-115.458;2023-01-28T12:23:56;101358.72;;;7.96;45.48
59409;BME280;45213;32.654;-115.458;2023-01-28T12:26:50;101352.81;;;7.71;45.07
59409;BME280;45213;32.654;-115.458;2023-01-28T12:29:40;101351.16;;;7.73;46.63
59409;BME280;45213;32.654;-115.458;2023-01-28T12:38:13;101362.47;;;7.76;46.02
59409;BME280;45213;32.654;-115.458;2023-01-28T12:41:09;101363.66;;;7.87;45.96
59409;BME280;45213;32.654;-115.458;2023-01-28T12:46:45;101373.75;;;7.78;45.76
59409;BME280;45213;32.654;-115.458;2023-01-28T12:54:15;101367.09;;;7.57;45.56
59409;BME280;45213;32.654;-115.458;2023-01-28T12:56:48;101367.81;;;7.53;45.80
59409;BME280;45213;32.654;-115.458;2023-01-28T12:59:27;101367.75;;;7.50;46.19
59409;BME280;45213;32.654;-115.458;2023-01-28T13:02:04;101369.47;;;7.49;46.76
59409;BME280;45213;32.654;-115.458;2023-01-28T13:04:51;101366.16;;;7.55;46.90
59409;BME280;45213;32.654;-115.458;2023-01-28T13:10:03;101374.00;;;7.57;45.69
59409;BME280;45213;32.654;-115.458;2023-01-28T13:12:31;101384.09;;;7.47;46.50
59409;BME280;45213;32.654;-115.458;2023-01-28T13:14:59;101378.56;;;7.37;46.73
59409;BME280;45213;32.654;-115.458;2023-01-28T13:17:29;101380.13;;;7.31;46.62
59409;BME280;45213;32.654;-115.458;2023-01-28T13:19:57;101387.97;;;7.35;47.16
59409;BME280;45213;32.654;-115.458;2023-01-28T13:22:36;101389.84;;;7.39;46.34
59409;BME280;45213;32.654;-115.458;2023-01-28T13:25:24;101406.13;;;7.35;47.49
59409;BME280;45213;32.654;-115.458;2023-01-28T13:27:55;101406.84;;;7.30;47.12
59409;BME280;45213;32.654;-115.458;2023-01-28T13:30:30;101414.59;;;7.29;46.98
59409;BME280;45213;32.654;-115.458;2023-01-28T13:33:24;101427.56;;;7.30;46.80
59409;BME280;45213;32.654;-115.458;2023-01-28T13:35:54;101434.72;;;7.38;46.40
59409;BME280;45213;32.654;-115.458;2023-01-28T13:38:21;101439.59;;;7.28;47.71
59409;BME280;45213;32.654;-115.458;2023-01-28T13:40:57;101441.94;;;7.21;47.80
59409;BME280;45213;32.654;-115.458;2023-01-28T13:43:38;101431.34;;;7.13;47.33
59409;BME280;45213;32.654;-115.458;2023-01-28T13:46:08;101440.47;;;7.02;47.89
59409;BME280;45213;32.654;-115.458;2023-01-28T13:51:22;101447.38;;;7.03;49.00
59409;BME280;45213;32.654;-115.458;2023-01-28T13:54:13;101443.84;;;7.01;48.49
59409;BME280;45213;32.654;-115.458;2023-01-28T13:56:50;101450.81;;;7.02;48.82
59409;BME280;45213;32.654;-115.458;2023-01-28T14:17:09;101490.44;;;6.75;49.43
59409;BME280;45213;32.654;-115.458;2023-01-28T14:19:40;101503.16;;;6.69;49.59
59409;BME280;45213;32.654;-115.458;2023-01-28T14:22:17;101502.00;;;6.61;50.01
59409;BME280;45213;32.654;-115.458;2023-01-28T14:24:45;101507.94;;;6.58;50.16
59409;BME280;45213;32.654;-115.458;2023-01-28T14:32:47;101523.63;;;6.63;49.73
59409;BME280;45213;32.654;-115.458;2023-01-28T14:35:30;101527.06;;;6.62;50.23
59409;BME280;45213;32.654;-115.458;2023-01-28T14:37:59;101520.59;;;6.51;49.23
59409;BME280;45213;32.654;-115.458;2023-01-28T14:40:28;101521.59;;;6.54;50.19
59409;BME280;45213;32.654;-115.458;2023-01-28T14:42:56;101526.94;;;6.59;49.11
59409;BME280;45213;32.654;-115.458;2023-01-28T14:51:21;101545.34;;;6.66;49.90